This is the latest recevied weather packets stored in our database for station/object SQ3RAX-13. If no packets are shown the sender has not sent any weather packets the latest 10 day(s).
| Time | Temp. | Humidity | Pressure | Rain* | Wind** | Luminosity | Snow |
|---|---|---|---|---|---|---|---|
| 1777346700 | 1.67° C | 67% | 1025 hPa | 0 mm | - | - | - |
| 1777346100 | 2.22° C | 67% | 1025 hPa | 0 mm | - | - | - |
| 1777345500 | 1.67° C | 64% | 1025 hPa | 0 mm | - | - | - |
| 1777344900 | 1.67° C | 64% | 1025 hPa | 0 mm | - | - | - |
| 1777344300 | 1.67° C | 64% | 1025 hPa | 0 mm | - | - | - |
| 1777343700 | 1.67° C | 63% | 1025 hPa | 0 mm | - | - | - |
| 1777343100 | 2.22° C | 65% | 1025 hPa | 0 mm | - | - | - |
| 1777342500 | 2.78° C | 63% | 1025 hPa | 0 mm | - | - | - |
| 1777341900 | 2.22° C | 60% | 1025 hPa | 0 mm | - | - | - |
| 1777341300 | 2.22° C | 60% | 1025 hPa | 0 mm | - | - | - |
| 1777340700 | 2.22° C | 60% | 1025 hPa | 0 mm | - | - | - |
| 1777340100 | 2.22° C | 59% | 1025 hPa | 0 mm | - | - | - |
| 1777339500 | 3.33° C | 60% | 1025 hPa | 0 mm | - | - | - |
| 1777338900 | 3.33° C | 56% | 1025 hPa | 0 mm | - | - | - |
| 1777338300 | 3.33° C | 56% | 1025 hPa | 0 mm | - | - | - |
| 1777337700 | 3.33° C | 56% | 1025 hPa | 0 mm | - | - | - |
| 1777337100 | 3.33° C | 56% | 1025 hPa | 0 mm | - | - | - |
| 1777336500 | 4.44° C | 57% | 1024 hPa | 0 mm | - | - | - |
| 1777335900 | 4.44° C | 58% | 1024 hPa | 0 mm | - | - | - |
| 1777335300 | 4.44° C | 58% | 1024 hPa | 0 mm | - | - | - |
| 1777334700 | 3.89° C | 54% | 1025 hPa | 0 mm | - | - | - |
| 1777334100 | 3.89° C | 54% | 1025 hPa | 0 mm | - | - | - |
| 1777333500 | 4.44° C | 53% | 1025 hPa | 0 mm | - | - | - |
| 1777332900 | 5° C | 55% | 1025 hPa | 0 mm | - | - | - |
| 1777332300 | 5° C | 55% | 1025 hPa | 0 mm | - | - | - |
* Rain latest hour (hover to see other rain measurements)
** Current wind speed in m/s (hover to see current wind gust speed)